Flight Track Log - Related Links

Times and Time Zones

All times are in EDT time to prevent confusion due to time zone crossing. See the N990JB flight status page for this flight to view local times or setup timezone preferences in your user account.

Time Position Orientation Groundspeed Altitude Reporting Facility
EDT Latitude Longitude Course Direction KTS MPH feet Rate Location/Type
Thu 07:21:23 PM 42.2019 -83.5936 232° Southwest 125 144 2,500  Level Cleveland Center
Thu 07:22:24 PM 42.1986 -83.6383 264° West 125 144 3,700 1,190 Climbing Cleveland Center
Thu 07:23:24 PM 42.2056 -83.6919 280° West 133 153 4,900 1,190 Climbing Cleveland Center
Thu 07:24:25 PM 42.2125 -83.7400 281° West 129 148 6,100 1,131 Climbing Cleveland Center
Thu 07:25:26 PM 42.2156 -83.7850 275° West 133 153 7,200 885 Climbing Cleveland Center
Thu 07:26:27 PM 42.2222 -83.8414 279° West 145 167 7,900 114 Climbing Cleveland Center
Thu 07:28:00 PM 42.2500 -83.9168 270° West  Level FlightAware Approximate
Thu 07:31:36 PM 42.2647 -84.1942 270° West 189 217 7,900  Level Chicago Center
Thu 07:32:39 PM 42.2697 -84.2647 275° West 189 217 7,900  Level Chicago Center
Thu 07:33:40 PM 42.2658 -84.3350 266° West 189 217 7,900  Level Chicago Center
Thu 07:34:42 PM 42.2631 -84.4047 267° West 188 216 7,900  Level Chicago Center
Thu 07:35:00 PM 42.2503 -84.3231 270° West  Level FlightAware Approximate
Thu 07:35:44 PM 42.2614 -84.4744 268° West 187 215 7,900  Level Chicago Center
Thu 07:36:00 PM 42.2504 -84.3811 270° West  Level FlightAware Approximate
Thu 07:36:46 PM 42.2586 -84.5569 267° West 184 212 7,900  Level Chicago Center
Thu 07:37:00 PM 42.2504 -84.4391 270° West  Level FlightAware Approximate
Thu 07:37:48 PM 42.2583 -84.6286 270° West 189 217 7,900  Level Chicago Center
Thu 07:38:50 PM 42.2475 -84.6958 258° West 186 214 7,900  Level Chicago Center
Thu 07:39:52 PM 42.2344 -84.7636 255° West 192 221 7,900  Level Chicago Center
Thu 07:40:54 PM 42.2231 -84.8314 257° West 189 217 7,900 -48 Level Chicago Center
Thu 07:41:56 PM 42.2086 -84.9142 257° West 189 217 7,800 -532 Descending Chicago Center
Thu 07:42:58 PM 42.1847 -84.9811 244° Southwest 198 228 6,800 -871 Descending Chicago Center
Thu 07:44:00 PM 42.1619 -85.0528 247° West 206 237 6,000 -919 Descending Chicago Center
Thu 07:45:02 PM 42.1417 -85.1222 249° West 204 235 4,900 -1,113 Descending Chicago Center
Thu 07:46:04 PM 42.1236 -85.1897 250° West 197 227 3,700 -1,016 Descending Chicago Center
Thu 07:47:06 PM 42.1014 -85.2658 249° West 186 214 2,800 -435 Descending Chicago Center
Thu 07:48:08 PM 42.0911 -85.3267 257° West 174 200 2,800  Level Chicago Center
Thu 07:49:11 PM 42.0989 -85.3844 280° West 169 194 2,800 -48 Level Chicago Center
Thu 07:50:13 PM 42.1217 -85.4325 303° West 161 185 2,700 -145 Descending Chicago Center
Thu 07:51:15 PM 42.1531 -85.4758 314° West 161 185 2,500 -290 Descending Chicago Center
Thu 07:52:17 PM 42.1831 -85.5192 313° West 161 185 2,100 -629 Descending Chicago Center
Thu 07:53:19 PM 42.2100 -85.5500 320° Northwest 146 168 1,200 -871 Descending Chicago Center

Login

Don't have an account? Register now (free) for customized features, flight alerts, and more!